Dunsmuir Atmospheric Data: 05/15/2019 Summary  Detailed Graphs  Station List

  Temperature     Wind Precipitation Visibility
Timestamp Air Wet
Bulb
Dew-
point
24-hr
Max
24-hr
Min
Relative
Humidity
Atmospheric
Pressure
Avg
Speed
Avg
Dir
Spot
Speed
Spot
Dir
Max
Speed
Max
Dir
  Rate Situation Start End 1 hr 3 hr 6 hr 12 hr 24 hr   Situation
Date Time °F °F °F °F °F % in Hg mph ° mph ° mph ° Y/N in/hr text Date Time Date Time in in in in in mi text
05/15/2019 12:01 AM 56.66 50.36 44.78 67.82 50.36 64.0 Not Reported 0.22 N 1.34 SW 0.67 NE No 0.000 No Precipitation     0.000 0.000 0.000 0.000 0.000 Not Reported Not Reported
05/15/2019 12:16 AM 55.40 50.54 46.40 67.82 50.36 71.0 Not Reported 0.45 NW 0.45 NW 1.34 SW No 0.000 No Precipitation     0.000 0.000 0.000 0.000 0.000 Not Reported Not Reported
05/15/2019 12:31 AM 54.50 50.36 46.76 67.82 50.36 74.0 Not Reported 2.24 SW 2.46 S 2.68 W No 0.000 No Precipitation     0.000 0.000 0.000 0.000 0.000 Not Reported Not Reported
05/15/2019 12:46 AM 54.50 50.72 47.48 67.82 50.36 76.0 Not Reported 0.67 N 0.00 NW 5.37 S No 0.000 No Precipitation     0.000 0.000 0.000 0.000 0.000 Not Reported Not Reported
05/15/2019 01:01 AM 54.32 50.54 47.48 67.82 50.36 77.0 Not Reported 0.67 W 0.00 W 1.34 SW No 0.000 No Precipitation     0.000 0.000 0.000 0.000 0.000 Not Reported Not Reported
05/15/2019 01:16 AM 53.78 50.36 47.48 67.82 50.36 79.0 Not Reported 0.89 N 1.34 N 1.12 N No 0.000 No Precipitation     0.000 0.000 0.000 0.000 0.000 Not Reported Not Reported
05/15/2019 01:31 AM 53.96 50.36 47.48 67.82 50.36 78.0 Not Reported 0.00 N 0.00 NW 0.45 N No 0.000 No Precipitation     0.000 0.000 0.000 0.000 0.000 Not Reported Not Reported
05/15/2019 01:46 AM 53.78 50.00 46.94 67.82 50.36 77.0 Not Reported 0.00 N 0.00 NW 0.22 NW No 0.000 No Precipitation     0.000 0.000 0.000 0.000 0.000 Not Reported Not Reported
05/15/2019 02:01 AM 53.96 50.36 47.12 67.82 50.36 77.0 Not Reported 0.45 E 0.00 E 0.67 E No 0.000 No Precipitation     0.000 0.000 0.000 0.000 0.000 Not Reported Not Reported
05/15/2019 02:16 AM 53.60 50.18 47.30 67.82 50.36 78.0 Not Reported 1.34 S 1.34 S 1.12 E No 0.000 No Precipitation     0.000 0.000 0.000 0.000 0.000 Not Reported Not Reported
05/15/2019 02:31 AM 53.24 49.82 46.94 67.82 50.36 79.0 Not Reported 0.22 NW 0.00 NW 1.34 W No 0.000 No Precipitation     0.000 0.000 0.000 0.000 0.000 Not Reported Not Reported
05/15/2019 02:46 AM 53.60 50.18 47.30 67.82 50.36 79.0 Not Reported 0.45 NE 1.12 E 0.89 S No 0.000 No Precipitation     0.000 0.000 0.000 0.000 0.000 Not Reported Not Reported
05/15/2019 03:01 AM 53.42 50.18 47.48 67.82 50.36 79.0 Not Reported 0.89 S 1.12 S 2.01 SE No 0.000 No Precipitation     0.000 0.000 0.000 0.000 0.000 Not Reported Not Reported
05/15/2019 03:16 AM 53.42 50.18 47.30 67.82 50.36 79.0 Not Reported 1.12 SW 1.12 SW 4.47 S No 0.000 No Precipitation     0.000 0.000 0.000 0.000 0.000 Not Reported Not Reported
05/15/2019 03:31 AM 53.06 49.82 47.12 67.82 50.36 79.0 Not Reported 0.00 W 0.67 W 1.34 N No 0.000 No Precipitation     0.000 0.000 0.000 0.000 0.000 Not Reported Not Reported
05/15/2019 03:46 AM 53.24 50.00 47.30 67.82 50.36 79.0 Not Reported 0.67 S 0.45 S 2.01 W No 0.000 No Precipitation     0.000 0.000 0.000 0.000 0.000 Not Reported Not Reported
05/15/2019 04:01 AM 53.24 50.00 47.30 67.82 50.36 80.0 Not Reported 0.22 SE 0.00 E 0.89 E No 0.000 No Precipitation     0.000 0.000 0.000 0.000 0.000 Not Reported Not Reported
05/15/2019 04:16 AM 53.42 50.18 47.30 67.82 50.36 79.0 Not Reported 0.89 SE 0.89 SE 2.01 S No 0.000 No Precipitation     0.000 0.000 0.000 0.000 0.000 Not Reported Not Reported
05/15/2019 04:31 AM 53.24 50.00 47.30 67.82 50.36 80.0 Not Reported 0.00 SE 0.00 S 1.12 SE No 0.000 No Precipitation     0.000 0.000 0.000 0.000 0.000 Not Reported Not Reported
05/15/2019 04:46 AM 53.24 50.18 47.48 67.82 50.36 80.0 Not Reported 0.45 E 1.12 NE 1.12 SE No 0.000 No Precipitation     0.000 0.000 0.000 0.000 0.000 Not Reported Not Reported
05/15/2019 05:01 AM 53.06 50.18 48.02 67.82 50.36 82.0 Not Reported 0.45 E 0.45 E 1.34 W No 0.000 No Precipitation     0.000 0.000 0.000 0.000 0.000 Not Reported Not Reported
05/15/2019 05:16 AM 52.88 50.54 48.74 67.82 50.36 85.0 Not Reported 0.22 N 0.00 W 1.57 S No 0.000 No Precipitation     0.000 0.000 0.000 0.000 0.000 Not Reported Not Reported
05/15/2019 05:31 AM 52.34 50.36 48.56 67.82 50.36 86.0 Not Reported 0.00 NW 0.00 NW 1.57 E No 0.000 No Precipitation     0.000 0.000 0.000 0.000 0.000 Not Reported Not Reported
05/15/2019 05:46 AM 51.62 49.82 48.38 67.82 50.36 88.0 Not Reported 1.12 W 1.12 W 1.12 NW No 0.000 No Precipitation     0.000 0.000 0.000 0.000 0.000 Not Reported Not Reported
05/15/2019 06:01 AM 51.44 49.82 48.56 67.82 50.36 89.0 Not Reported 1.12 SW 0.67 SW 1.57 W No 0.000 No Precipitation     0.000 0.000 0.000 0.000 0.000 Not Reported Not Reported
05/15/2019 06:16 AM 51.80 50.36 49.10 67.82 50.36 90.0 Not Reported 0.22 SE 0.00 SE 0.89 W No 0.000 No Precipitation     0.000 0.000 0.000 0.000 0.000 Not Reported Not Reported
05/15/2019 06:31 AM 51.44 50.00 48.92 67.82 50.36 90.0 Not Reported 0.00 N 0.00 N 1.34 NE No 0.000 No Precipitation     0.000 0.000 0.000 0.000 0.000 Not Reported Not Reported
05/15/2019 06:46 AM 51.26 50.00 48.92 67.82 50.36 91.0 Not Reported 0.00 N 0.00 N 0.00 N No 0.000 No Precipitation     0.000 0.000 0.000 0.000 0.000 Not Reported Not Reported
05/15/2019 07:01 AM 51.26 49.82 48.92 67.82 50.36 91.0 Not Reported 0.22 N 0.22 W 1.12 N No 0.000 No Precipitation     0.000 0.000 0.000 0.000 0.000 Not Reported Not Reported
05/15/2019 07:16 AM 51.26 50.18 49.10 67.82 50.36 92.0 Not Reported 0.00 N 0.00 NW 1.57 W No 0.000 No Precipitation     0.000 0.000 0.000 0.000 0.000 Not Reported Not Reported
05/15/2019 07:31 AM 51.26 50.18 49.28 67.82 50.54 92.0 Not Reported 0.22 SE 0.22 E 0.67 SE Yes 0.043 Rain Slight 05/14/2019 11:28 PM   0.004 0.004 0.004 0.004 0.004 Not Reported Not Reported
05/15/2019 07:46 AM 51.44 50.36 49.46 67.82 50.90 93.0 Not Reported 0.89 SE 0.89 SE 1.34 SE No 0.000 No Precipitation 05/14/2019 11:28 PM 05/14/2019 11:33 PM 0.004 0.004 0.004 0.004 0.004 Not Reported Not Reported
05/15/2019 08:01 AM 51.62 50.54 49.82 67.82 50.90 93.0 Not Reported 0.22 SE 0.67 SE 3.80 E No 0.000 No Precipitation 05/14/2019 11:28 PM 05/14/2019 11:33 PM 0.004 0.004 0.004 0.004 0.004 Not Reported Not Reported
05/15/2019 08:16 AM 51.98 50.90 50.00 67.82 50.90 92.0 Not Reported 2.24 E 2.24 E 1.34 S No 0.000 No Precipitation 05/14/2019 11:28 PM 05/14/2019 11:33 PM 0.004 0.004 0.004 0.004 0.004 Not Reported Not Reported
05/15/2019 08:31 AM 52.34 51.26 50.36 67.82 50.90 92.0 Not Reported 0.45 NE 0.00 S 0.89 NE No 0.000 No Precipitation 05/14/2019 11:28 PM 05/14/2019 11:33 PM 0.000 0.004 0.004 0.004 0.004 Not Reported Not Reported
05/15/2019 08:46 AM 52.34 51.26 50.18 67.82 50.90 92.0 Not Reported 0.00 SE 0.22 SE 2.68 SE No 0.000 No Precipitation 05/14/2019 11:28 PM 05/14/2019 11:33 PM 0.000 0.004 0.004 0.004 0.004 Not Reported Not Reported
05/15/2019 09:01 AM 52.34 51.26 50.18 67.82 50.90 92.0 Not Reported 2.24 SE 0.22 SE 4.03 SE No 0.000 No Precipitation 05/14/2019 11:28 PM 05/14/2019 11:33 PM 0.000 0.004 0.004 0.004 0.004 Not Reported Not Reported
05/15/2019 09:16 AM 51.98 51.08 50.18 67.82 50.90 93.0 Not Reported 3.36 SE 4.25 E 2.91 E Yes 0.043 Rain Slight 05/15/2019 01:11 AM   0.008 0.008 0.008 0.008 0.008 Not Reported Not Reported
05/15/2019 09:31 AM 51.44 50.72 50.18 67.82 50.90 95.0 Not Reported 5.37 E 3.58 SE 10.29 SE No 0.000 No Precipitation 05/15/2019 01:17 AM 05/15/2019 01:29 AM 0.031 0.035 0.035 0.035 0.035 Not Reported Not Reported
05/15/2019 09:46 AM 51.44 50.72 50.18 67.82 50.90 95.0 Not Reported 8.95 SE 8.05 S 6.49 E Yes 0.085 Rain Moderate 05/15/2019 01:44 AM   0.039 0.043 0.043 0.043 0.043 Not Reported Not Reported
05/15/2019 10:01 AM 51.62 50.72 50.00 67.82 50.90 94.0 Not Reported 9.62 E 9.84 E 10.74 E No 0.000 No Precipitation 05/15/2019 01:56 AM 05/15/2019 02:01 AM 0.071 0.075 0.075 0.075 0.075 Not Reported Not Reported
05/15/2019 10:16 AM 51.62 50.72 50.00 67.82 50.90 94.0 Not Reported 2.91 SE 1.57 SE 10.29 SE Yes 0.043 Rain Slight 05/15/2019 02:04 AM   0.075 0.083 0.083 0.083 0.083 Not Reported Not Reported
05/15/2019 10:31 AM 51.26 50.36 49.46 67.82 50.90 93.0 Not Reported 5.14 E 3.36 E 8.05 SE Yes 0.085 Rain Moderate 05/15/2019 02:21 AM   0.071 0.102 0.102 0.102 0.102 Not Reported Not Reported
05/15/2019 10:46 AM 50.72 50.00 49.28 67.82 50.54 94.0 Not Reported 5.14 E 5.14 E 8.28 E Yes 0.085 Rain Moderate 05/15/2019 02:21 AM   0.083 0.126 0.130 0.130 0.130 Not Reported Not Reported
05/15/2019 11:01 AM 50.90 50.18 49.64 67.82 50.54 95.0 Not Reported 5.37 E 5.37 E 6.93 E Yes 0.085 Rain Moderate 05/15/2019 02:21 AM   0.075 0.146 0.150 0.150 0.150 Not Reported Not Reported
05/15/2019 11:16 AM 50.36 49.64 49.10 67.82 50.18 95.0 Not Reported 8.28 SE 7.16 SW 12.53 E Yes 0.085 Rain Moderate 05/15/2019 02:21 AM   0.083 0.165 0.169 0.169 0.169 Not Reported Not Reported
05/15/2019 11:31 AM 50.18 49.46 48.92 67.82 50.00 95.0 Not Reported 6.71 E 7.83 NE 9.84 E Yes 0.043 Rain Slight 05/15/2019 02:21 AM   0.083 0.185 0.189 0.189 0.189 Not Reported Not Reported
05/15/2019 11:46 AM 50.18 49.28 48.74 67.82 50.00 95.0 Not Reported 7.38 E 8.05 E 10.51 E No 0.000 No Precipitation 05/15/2019 03:40 AM 05/15/2019 03:45 AM 0.071 0.197 0.201 0.201 0.201 Not Reported Not Reported
05/15/2019 12:01 PM 50.54 49.46 48.74 67.82 50.00 93.0 Not Reported 6.26 E 4.70 NE 11.18 E Yes 0.085 Rain Moderate 05/15/2019 03:48 AM   0.067 0.209 0.217 0.217 0.217 Not Reported Not Reported
05/15/2019 12:16 PM 50.36 49.28 48.56 67.82 50.00 93.0 Not Reported 4.92 E 4.25 E 9.62 SE Yes 0.043 Rain Slight 05/15/2019 03:48 AM   0.063 0.224 0.236 0.236 0.236 Not Reported Not Reported
05/15/2019 12:31 PM 50.18 49.46 48.56 67.82 50.00 94.0 Not Reported 4.25 E 6.93 E 8.28 SE Yes 0.085 Rain Moderate 05/15/2019 03:48 AM   0.063 0.220 0.256 0.256 0.256 Not Reported Not Reported
05/15/2019 12:46 PM 50.54 49.64 48.92 67.82 50.00 94.0 Not Reported 3.80 E 2.46 SE 8.50 E Yes 0.085 Rain Moderate 05/15/2019 03:48 AM   0.079 0.228 0.280 0.280 0.280 Not Reported Not Reported
05/15/2019 01:01 PM 50.18 49.28 48.74 67.82 50.00 94.0 Not Reported 4.92 E 7.38 E 5.59 E Yes 0.043 Rain Slight 05/15/2019 03:48 AM   0.083 0.224 0.299 0.299 0.299 Not Reported Not Reported
05/15/2019 01:16 PM 50.36 49.64 49.10 67.82 50.00 94.0 Not Reported 6.49 E 6.04 E 8.95 E Yes 0.085 Rain Moderate 05/15/2019 03:48 AM   0.083 0.228 0.315 0.315 0.315 Not Reported Not Reported
05/15/2019 01:31 PM 50.72 50.00 49.46 67.82 50.00 95.0 Not Reported 3.36 SE 4.25 E 6.93 SE Yes 0.043 Rain Slight 05/15/2019 03:48 AM   0.079 0.224 0.331 0.335 0.335 Not Reported Not Reported
05/15/2019 01:46 PM 50.72 50.00 49.28 67.82 50.00 95.0 Not Reported 5.14 E 4.03 NE 6.93 E Yes 0.043 Rain Slight 05/15/2019 05:44 AM   0.071 0.220 0.343 0.350 0.350 Not Reported Not Reported
05/15/2019 02:01 PM 51.08 50.36 49.64 67.82 50.00 94.0 Not Reported 2.68 SE 5.82 SE 8.05 E No 0.000 No Precipitation 05/15/2019 05:54 AM 05/15/2019 05:59 AM 0.055 0.205 0.350 0.354 0.354 Not Reported Not Reported
05/15/2019 02:16 PM 51.08 50.00 48.92 67.82 50.00 92.0 Not Reported 5.82 E 4.03 E 6.71 E No 0.000 No Precipitation 05/15/2019 06:08 AM 05/15/2019 06:13 AM 0.039 0.185 0.354 0.354 0.354 Not Reported Not Reported
05/15/2019 02:31 PM 51.44 50.18 49.28 67.82 50.00 91.0 Not Reported 4.70 SE 3.36 NE 9.40 E No 0.000 No Precipitation 05/15/2019 06:24 AM 05/15/2019 06:29 AM 0.031 0.169 0.362 0.362 0.362 Not Reported Not Reported
05/15/2019 02:46 PM 51.44 50.54 49.64 67.82 50.00 93.0 Not Reported 7.38 E 6.71 E 8.50 E Yes 0.043 Rain Slight 05/15/2019 06:41 AM   0.020 0.169 0.370 0.374 0.374 Not Reported Not Reported
05/15/2019 03:16 PM 51.98 51.26 50.90 67.82 50.00 95.0 Not Reported 4.70 E 5.14 SE 7.38 SE Yes 0.043 Rain Slight 05/15/2019 07:03 AM   0.035 0.157 0.382 0.394 0.394 Not Reported Not Reported
05/15/2019 03:31 PM 51.98 51.26 50.72 67.82 50.00 95.0 Not Reported 4.47 E 4.70 E 6.71 E Yes 0.043 Rain Slight 05/15/2019 07:23 AM   0.039 0.154 0.374 0.409 0.409 Not Reported Not Reported
05/15/2019 03:46 PM 51.80 51.08 50.36 67.82 50.00 94.0 Not Reported 4.92 E 5.37 E 8.95 E Yes 0.085 Rain Moderate 05/15/2019 07:23 AM   0.059 0.154 0.382 0.433 0.433 Not Reported Not Reported
05/15/2019 04:01 PM 51.62 50.90 50.36 67.82 50.00 95.0 Not Reported 5.14 E 8.50 E 7.83 E No 0.000 No Precipitation 05/15/2019 07:23 AM 05/15/2019 07:57 AM 0.063 0.146 0.370 0.441 0.441 Not Reported Not Reported
05/15/2019 04:16 PM 51.62 50.90 50.36 67.82 50.00 95.0 Not Reported 6.49 E 5.37 E 9.17 E Yes 0.043 Rain Slight 05/15/2019 08:15 AM   0.059 0.134 0.362 0.453 0.453 Not Reported Not Reported
05/15/2019 04:31 PM 51.80 51.08 50.54 67.64 50.00 95.0 Not Reported 5.14 E 3.80 NE 7.83 E Yes 0.043 Rain Slight 05/15/2019 08:30 AM   0.055 0.130 0.354 0.461 0.461 Not Reported Not Reported
05/15/2019 04:46 PM 51.80 51.08 50.36 67.28 50.00 94.0 Not Reported 4.92 E 5.82 E 8.72 E Yes 0.085 Rain Moderate 05/15/2019 08:42 AM   0.039 0.126 0.343 0.472 0.472 Not Reported Not Reported
05/15/2019 05:01 PM 51.80 51.08 50.72 66.92 50.00 95.0 Not Reported 4.92 SE 6.26 SE 8.72 E Yes 0.085 Rain Moderate 05/15/2019 08:42 AM   0.055 0.146 0.350 0.500 0.500 Not Reported Not Reported
05/15/2019 05:16 PM 51.62 51.08 50.54 66.92 50.00 96.0 Not Reported 3.80 E 4.03 E 9.84 SE Yes 0.043 Rain Slight 05/15/2019 08:42 AM   0.067 0.161 0.343 0.520 0.520 Not Reported Not Reported
05/15/2019 05:31 PM 51.62 51.26 50.72 66.92 50.00 96.0 Not Reported 3.13 SE 3.58 E 5.82 SE Yes 0.043 Rain Slight 05/15/2019 09:20 AM   0.067 0.165 0.335 0.531 0.531 Not Reported Not Reported
05/15/2019 05:46 PM 51.80 51.26 50.90 66.92 50.00 96.0 Not Reported 2.46 SE 2.24 S 7.61 E Yes 0.043 Rain Slight 05/15/2019 09:39 AM   0.063 0.165 0.335 0.539 0.539 Not Reported Not Reported
05/15/2019 06:01 PM 51.44 50.90 50.54 66.56 50.00 96.0 Not Reported 4.03 E 4.70 E 6.49 E No 0.000 No Precipitation 05/15/2019 09:49 AM 05/15/2019 10:00 AM 0.055 0.169 0.335 0.555 0.555 Not Reported Not Reported
05/15/2019 06:16 PM 51.62 51.08 50.72 66.20 50.00 97.0 Not Reported 4.70 E 4.25 E 7.16 E Yes 0.085 Rain Moderate 05/15/2019 10:12 AM   0.043 0.169 0.331 0.567 0.567 Not Reported Not Reported
05/15/2019 06:31 PM 51.44 51.08 50.72 65.66 50.00 97.0 Not Reported 4.92 SE 1.79 SE 7.16 E No 0.000 No Precipitation 05/15/2019 10:12 AM 05/15/2019 10:29 AM 0.043 0.165 0.323 0.579 0.579 Not Reported Not Reported
05/15/2019 06:46 PM 51.26 50.72 50.54 65.66 50.00 97.0 Not Reported 3.80 SE 4.47 S 6.26 SE Yes 0.043 Rain Slight 05/15/2019 10:45 AM   0.051 0.157 0.311 0.591 0.591 Not Reported Not Reported
05/15/2019 07:01 PM 51.08 50.72 50.36 64.76 50.00 97.0 Not Reported 5.14 SE 5.14 SE 7.16 E Yes 0.043 Rain Slight 05/15/2019 10:45 AM   0.051 0.161 0.307 0.606 0.606 Not Reported Not Reported
05/15/2019 07:16 PM 50.90 50.54 50.18 64.58 50.00 97.0 Not Reported 5.82 SE 7.61 E 8.05 E Yes 0.085 Rain Moderate 05/15/2019 10:45 AM   0.059 0.169 0.307 0.626 0.626 Not Reported Not Reported
05/15/2019 07:31 PM 51.08 50.54 50.36 64.40 50.00 97.0 Not Reported 4.70 E 4.47 NE 8.05 E Yes 0.085 Rain Moderate 05/15/2019 10:45 AM   0.071 0.185 0.315 0.646 0.650 Not Reported Not Reported
05/15/2019 07:46 PM 50.90 50.54 50.18 63.68 50.00 97.0 Not Reported 4.25 E 4.92 SE 5.59 E Yes 0.043 Rain Slight 05/15/2019 10:45 AM   0.079 0.189 0.315 0.665 0.669 Not Reported Not Reported
05/15/2019 08:01 PM 50.90 50.54 50.18 63.50 50.00 97.0 Not Reported 4.70 E 3.58 SE 7.16 E Yes 0.085 Rain Moderate 05/15/2019 10:45 AM   0.091 0.201 0.343 0.693 0.701 Not Reported Not Reported
05/15/2019 08:16 PM 50.54 50.18 50.00 63.14 50.00 97.0 Not Reported 2.91 SE 4.70 SE 6.26 E Yes 0.085 Rain Moderate 05/15/2019 10:45 AM   0.098 0.205 0.362 0.720 0.724 Not Reported Not Reported
05/15/2019 08:31 PM 50.54 50.18 50.00 62.78 50.00 97.0 Not Reported 1.57 SE 3.36 SE 4.70 E Yes 0.085 Rain Moderate 05/15/2019 10:45 AM   0.098 0.217 0.382 0.744 0.748 Not Reported Not Reported
05/15/2019 08:46 PM 50.54 50.18 49.82 61.16 50.00 97.0 Not Reported 3.58 E 3.36 E 5.82 E Yes 0.128 Rain Moderate 05/15/2019 10:45 AM   0.102 0.236 0.402 0.768 0.772 Not Reported Not Reported
05/15/2019 09:01 PM 50.54 50.18 50.00 60.80 50.00 97.0 Not Reported 5.37 E 6.93 E 6.49 E Yes 0.128 Rain Moderate 05/15/2019 10:45 AM   0.102 0.252 0.421 0.803 0.807 Not Reported Not Reported
05/15/2019 09:16 PM 50.36 50.00 49.64 60.62 50.00 97.0 Not Reported 6.26 E 7.61 E 6.93 E Yes 0.128 Rain Moderate 05/15/2019 10:45 AM   0.122 0.280 0.453 0.831 0.846 Not Reported Not Reported
05/15/2019 09:31 PM 50.36 50.00 49.82 59.72 50.00 97.0 Not Reported 5.37 E 4.03 NE 7.16 E Yes 0.128 Rain Moderate 05/15/2019 10:45 AM   0.138 0.307 0.472 0.846 0.886 Not Reported Not Reported
05/15/2019 09:46 PM 50.00 49.82 49.64 58.82 50.00 98.0 Not Reported 5.59 SE 7.16 E 6.26 SE Yes 0.128 Rain Moderate 05/15/2019 10:45 AM   0.142 0.323 0.480 0.866 0.917 Not Reported Not Reported
05/15/2019 10:01 PM 49.82 49.46 49.28 58.28 49.82 98.0 Not Reported 5.37 E 6.49 E 6.93 E Yes 0.128 Rain Moderate 05/15/2019 10:45 AM   0.150 0.350 0.512 0.882 0.957 Not Reported Not Reported
05/15/2019 10:16 PM 49.64 49.28 49.10 57.74 49.46 98.0 Not Reported 5.82 SE 5.14 SE 10.51 E Yes 0.128 Rain Moderate 05/15/2019 10:45 AM   0.154 0.374 0.547 0.909 1.000 Not Reported Not Reported
05/15/2019 10:31 PM 49.28 48.92 48.74 57.38 49.28 97.0 Not Reported 3.13 SE 5.59 E 9.62 SE Yes 0.128 Rain Moderate 05/15/2019 10:45 AM   0.150 0.382 0.571 0.925 1.035 Not Reported Not Reported
05/15/2019 10:46 PM 48.92 48.56 48.20 57.20 48.92 97.0 Not Reported 2.91 SE 1.57 SE 7.61 E Yes 0.128 Rain Moderate 05/15/2019 10:45 AM   0.154 0.402 0.594 0.941 1.071 Not Reported Not Reported
05/15/2019 11:01 PM 48.92 48.56 48.20 57.20 48.92 97.0 Not Reported 2.24 SE 4.70 SE 4.92 SE Yes 0.184 Rain Moderate 05/15/2019 10:45 AM   0.154 0.409 0.610 0.961 1.110 Not Reported Not Reported
05/15/2019 11:16 PM 48.74 48.38 48.02 57.20 48.56 97.0 Not Reported 2.24 SE 3.13 SE 6.26 E Yes 0.227 Rain Moderate 05/15/2019 10:45 AM   0.161 0.433 0.642 0.984 1.161 Not Reported Not Reported
05/15/2019 11:31 PM 48.56 48.38 48.02 56.84 48.38 97.0 Not Reported 5.37 E 5.59 E 6.26 E Yes 0.184 Rain Moderate 05/15/2019 10:45 AM   0.165 0.453 0.669 1.012 1.205 Not Reported Not Reported
05/15/2019 11:46 PM 48.56 48.02 47.84 56.66 48.20 97.0 Not Reported 3.80 SE 3.80 E 6.49 SE Yes 0.128 Rain Moderate 05/15/2019 10:45 AM   0.165 0.461 0.701 1.039 1.240 Not Reported Not Reported